This is the latest recevied weather packets stored in our database for station/object KB9ZGZ. If no packets are shown the sender has not sent any weather packets the latest 10 day(s).
| Time | Temp. | Humidity | Pressure | Rain* | Wind** | Luminosity | Snow |
|---|---|---|---|---|---|---|---|
| 1777669215 | 15° C | 46% | 1012.3 hPa | 0 mm | - | - | - |
| 1777668312 | 15° C | 45% | 1012.5 hPa | 0 mm | - | - | - |
| 1777667411 | 15° C | 46% | 1012.6 hPa | 0 mm | - | - | - |
| 1777666510 | 15.56° C | 45% | 1012.6 hPa | 0 mm | - | - | - |
| 1777665608 | 15° C | 47% | 1012.9 hPa | 0 mm | - | - | - |
| 1777664711 | 14.44° C | 52% | 1013 hPa | 0 mm | - | - | - |
| 1777663812 | 15° C | 49% | 1013 hPa | 0 mm | - | - | - |
| 1777662904 | 15° C | 50% | 1013 hPa | 0 mm | - | - | - |
| 1777662003 | 15.56° C | 50% | 1013 hPa | 0 mm | - | - | - |
| 1777661162 | 14.44° C | 52% | 1012.9 hPa | 0 mm | - | - | - |
| 1777660260 | 15° C | 51% | 1012.9 hPa | 0 mm | - | - | - |
| 1777659356 | 14.44° C | 52% | 1012.8 hPa | 0 mm | - | - | - |
| 1777658452 | 13.89° C | 54% | 1012.9 hPa | 0 mm | - | - | - |
| 1777657583 | 13.89° C | 53% | 1013 hPa | 0 mm | - | - | - |
| 1777656657 | 13.89° C | 52% | 1013 hPa | 0 mm | - | - | - |
| 1777655752 | 13.33° C | 54% | 1013 hPa | 0 mm | - | - | - |
| 1777654857 | 13.33° C | 55% | 1013 hPa | 0 mm | - | - | - |
| 1777653948 | 13.33° C | 57% | 1013.3 hPa | 0.25 mm | - | - | - |
| 1777653039 | 12.78° C | 57% | 1013.3 hPa | 0.25 mm | - | - | - |
| 1777652145 | 12.78° C | 57% | 1013.2 hPa | 0.25 mm | - | - | - |
| 1777651243 | 12.78° C | 53% | 1013.2 hPa | 0.25 mm | - | - | - |
| 1777650367 | 12.22° C | 59% | 1013.4 hPa | 0.25 mm | - | - | - |
| 1777649447 | 12.22° C | 59% | 1013.3 hPa | 0.25 mm | - | - | - |
| 1777648535 | 11.67° C | 63% | 1013.1 hPa | 0.25 mm | - | - | - |
| 1777647634 | 11.11° C | 67% | 1012.9 hPa | 0.25 mm | - | - | - |
* Rain since midnight (hover to see other rain measurements)
** Current wind speed in m/s (hover to see current wind gust speed)